createdAt,value
2022-11-13T00:02:03.558Z,102532.06
2022-11-13T00:04:50.869Z,102582.69
2022-11-13T00:07:39.114Z,102566.25
2022-11-13T00:10:25.860Z,102453.38
2022-11-13T00:13:15.269Z,102565.56
2022-11-13T00:16:04.944Z,102565.34
2022-11-13T00:18:52.089Z,102560.88
2022-11-13T00:21:39.178Z,102554.59
2022-11-13T00:24:27.486Z,102547.94
2022-11-13T00:27:14.570Z,102481.84
2022-11-13T00:30:01.362Z,102550.97
2022-11-13T00:32:48.366Z,102541.53
2022-11-13T00:35:35.459Z,102542.63
2022-11-13T00:38:22.537Z,102536.56
2022-11-13T00:41:10.896Z,102506.47
2022-11-13T00:43:58.001Z,102473.59
2022-11-13T00:46:45.161Z,102531.56
2022-11-13T00:49:32.352Z,102494.19
2022-11-13T00:52:19.536Z,102515.63
2022-11-13T00:55:08.546Z,102516.59
2022-11-13T00:57:56.909Z,102512.16
2022-11-13T01:00:46.802Z,102455.16
2022-11-13T01:03:33.771Z,102511.38
2022-11-13T01:06:24.869Z,102506.84
2022-11-13T01:09:14.632Z,102448.72
2022-11-13T01:12:01.542Z,102498.13
2022-11-13T01:14:50.341Z,102501.75
2022-11-13T01:17:37.160Z,102515.06
2022-11-13T01:20:25.806Z,102399.38
2022-11-13T01:23:12.700Z,102500.13
2022-11-13T01:26:08.590Z,102507.19
2022-11-13T01:28:57.137Z,102496.47
2022-11-13T01:31:45.676Z,102434.19
2022-11-13T01:34:32.675Z,102466.09
2022-11-13T01:37:19.649Z,102488.41
2022-11-13T01:40:07.949Z,102360.06
2022-11-13T01:42:55.045Z,102502.59
2022-11-13T01:46:20.373Z,102517.69
2022-11-13T01:49:26.783Z,102487.47
2022-11-13T01:52:20.176Z,102451.84
2022-11-13T01:55:12.945Z,102495.47
2022-11-13T01:58:00.802Z,102467.91
2022-11-13T02:00:47.869Z,102449.22
2022-11-13T02:03:35.502Z,102469.72
2022-11-13T02:06:23.764Z,102475.06
2022-11-13T02:09:12.666Z,102415.28
2022-11-13T02:12:00.610Z,102474.88
2022-11-13T02:14:51.466Z,102466.81
2022-11-13T02:17:44.485Z,102428.53
2022-11-13T02:20:46.608Z,102317.25
2022-11-13T02:23:45.917Z,102467.78
2022-11-13T02:26:35.252Z,102466.97
2022-11-13T02:29:22.435Z,102390.31
2022-11-13T02:32:09.694Z,102283.50
2022-11-13T02:34:56.404Z,102422.44
2022-11-13T02:37:43.430Z,102346.72
2022-11-13T02:40:30.738Z,102371.66
2022-11-13T02:43:19.180Z,102457.16
2022-11-13T02:46:06.166Z,102439.31
2022-11-13T02:48:52.924Z,102467.66
2022-11-13T02:51:39.818Z,102438.41
2022-11-13T02:54:26.964Z,102425.09
2022-11-13T02:57:13.900Z,102319.13
2022-11-13T03:00:03.178Z,102427.81
2022-11-13T03:02:50.305Z,102311.09
2022-11-13T03:05:37.407Z,102404.69
2022-11-13T03:08:26.132Z,102410.97
2022-11-13T03:11:14.427Z,102386.84
2022-11-13T03:14:01.352Z,102425.16
2022-11-13T03:16:49.909Z,102321.81
2022-11-13T03:19:36.685Z,102387.81
2022-11-13T03:22:23.758Z,102394.03
2022-11-13T03:25:11.296Z,102389.56
2022-11-13T03:27:58.396Z,102415.34
2022-11-13T03:30:45.443Z,102377.03
2022-11-13T03:33:34.502Z,102403.69
2022-11-13T03:36:21.982Z,102416.88
2022-11-13T03:39:08.963Z,102318.97
2022-11-13T03:41:55.995Z,102422.00
2022-11-13T03:44:42.880Z,102197.03
2022-11-13T03:47:29.952Z,102384.00
2022-11-13T03:50:19.947Z,102306.81
2022-11-13T03:53:07.183Z,102370.16
2022-11-13T03:55:54.540Z,102420.03
2022-11-13T03:58:43.710Z,102384.53
2022-11-13T04:01:34.189Z,102402.19
2022-11-13T04:04:21.533Z,102345.41
2022-11-13T04:07:10.022Z,102352.59
2022-11-13T04:09:57.166Z,102365.31
2022-11-13T04:12:44.393Z,102395.56
2022-11-13T04:15:31.258Z,102375.91
2022-11-13T04:18:18.213Z,102345.06
2022-11-13T04:21:07.031Z,102392.66
2022-11-13T04:23:55.586Z,102377.41
2022-11-13T04:26:42.561Z,102408.28
2022-11-13T04:29:29.504Z,102390.81
2022-11-13T04:32:16.729Z,102381.34
2022-11-13T04:35:03.877Z,102294.16
2022-11-13T04:37:50.845Z,102299.84
2022-11-13T04:40:41.460Z,102363.25
2022-11-13T04:43:27.386Z,102367.75
2022-11-13T04:46:14.388Z,102292.94
2022-11-13T04:49:01.124Z,102320.56
2022-11-13T04:51:48.226Z,102297.19
2022-11-13T04:54:35.377Z,102367.03
2022-11-13T04:57:24.486Z,102395.81
2022-11-13T05:00:13.582Z,102252.03
2022-11-13T05:03:00.764Z,102286.28
2022-11-13T05:05:47.946Z,102371.81
2022-11-13T05:08:34.946Z,102357.78
2022-11-13T05:11:22.335Z,102348.06
2022-11-13T05:14:13.340Z,102086.78
2022-11-13T05:17:00.919Z,102344.66
2022-11-13T05:19:47.879Z,102342.88
2022-11-13T05:22:34.895Z,102375.41
2022-11-13T05:25:21.799Z,102340.97
2022-11-13T05:28:08.699Z,102314.25
2022-11-13T05:31:06.081Z,102321.94
2022-11-13T05:33:53.275Z,102281.97
2022-11-13T05:36:40.897Z,102292.78
2022-11-13T05:39:27.748Z,102116.22
2022-11-13T05:42:14.815Z,102313.50
2022-11-13T05:45:01.678Z,102295.44
2022-11-13T05:47:51.531Z,102272.47
2022-11-13T05:50:38.829Z,102267.19
2022-11-13T05:53:25.758Z,102305.53
2022-11-13T05:56:18.369Z,102171.88
2022-11-13T05:59:06.657Z,102290.47
2022-11-13T06:01:53.824Z,102165.63
2022-11-13T06:04:42.227Z,102305.03
2022-11-13T06:07:29.396Z,102309.69
2022-11-13T06:10:19.424Z,102281.44
2022-11-13T06:13:06.405Z,102299.22
2022-11-13T06:15:54.205Z,102172.81
2022-11-13T06:18:43.123Z,102237.66
2022-11-13T06:21:34.320Z,102291.31
2022-11-13T06:24:21.096Z,102279.81
2022-11-13T06:27:08.162Z,102274.41
2022-11-13T06:29:55.454Z,102272.69
2022-11-13T06:32:42.607Z,102290.69
2022-11-13T06:35:29.728Z,102266.66
2022-11-13T06:38:18.108Z,102266.50
2022-11-13T06:41:06.229Z,102270.16
2022-11-13T06:43:53.392Z,102294.31
2022-11-13T06:46:40.192Z,102282.66
2022-11-13T06:49:27.475Z,102198.19
2022-11-13T06:52:14.109Z,102303.28
2022-11-13T06:55:02.697Z,102044.78
2022-11-13T06:57:49.583Z,102278.69
2022-11-13T07:00:38.934Z,102269.72
2022-11-13T07:03:28.397Z,102260.88
2022-11-13T07:06:19.839Z,102178.94
2022-11-13T07:09:07.101Z,102214.69
2022-11-13T07:11:55.566Z,102275.72
2022-11-13T07:14:42.912Z,102291.63
2022-11-13T07:17:30.391Z,102136.88
2022-11-13T07:20:17.700Z,102233.38
2022-11-13T07:23:05.379Z,102243.22
2022-11-13T07:25:55.443Z,102273.66
2022-11-13T07:28:43.540Z,102271.47
2022-11-13T07:31:30.333Z,102256.34
2022-11-13T07:34:17.382Z,102230.78
2022-11-13T07:37:06.484Z,102263.31
2022-11-13T07:39:53.391Z,102264.63
2022-11-13T07:42:41.001Z,102212.41
2022-11-13T07:45:30.430Z,102006.28
2022-11-13T07:48:17.258Z,102269.50
2022-11-13T07:51:05.132Z,102267.78
2022-11-13T07:53:55.845Z,102266.03
2022-11-13T07:56:42.997Z,102266.06
2022-11-13T07:59:30.129Z,102147.06
2022-11-13T08:02:22.332Z,102258.97
2022-11-13T08:05:13.260Z,102272.19
2022-11-13T08:08:00.374Z,102225.91
2022-11-13T08:10:47.298Z,102320.88
2022-11-13T08:13:35.065Z,102232.88
2022-11-13T08:16:23.417Z,102117.41
2022-11-13T08:19:12.032Z,102273.75
2022-11-13T08:21:59.022Z,102197.81
2022-11-13T08:24:46.101Z,102233.19
2022-11-13T08:27:33.184Z,102252.06
2022-11-13T08:30:20.226Z,102254.31
2022-11-13T08:33:07.388Z,102278.16
2022-11-13T08:35:57.267Z,102194.59
2022-11-13T08:38:44.153Z,102238.44
2022-11-13T08:41:31.267Z,102266.63
2022-11-13T08:44:18.210Z,102229.25
2022-11-13T08:47:07.119Z,102141.78
2022-11-13T08:49:54.047Z,102260.84
2022-11-13T08:52:42.875Z,101987.63
2022-11-13T08:55:29.930Z,102086.16
2022-11-13T08:58:18.394Z,102148.31
2022-11-13T09:01:06.534Z,102124.34
2022-11-13T09:03:53.792Z,102180.50
2022-11-13T09:06:41.314Z,102149.28
2022-11-13T09:09:29.934Z,102189.78
2022-11-13T09:12:18.743Z,102220.03
2022-11-13T09:15:06.844Z,102226.25
2022-11-13T09:17:57.703Z,102222.13
2022-11-13T09:20:44.567Z,102146.53
2022-11-13T09:23:31.890Z,102214.03
2022-11-13T09:26:20.152Z,102203.63
2022-11-13T09:29:07.350Z,102204.72
2022-11-13T09:31:54.417Z,102208.03
2022-11-13T09:34:41.048Z,102201.84
2022-11-13T09:37:28.146Z,102182.56
2022-11-13T09:40:29.208Z,102166.75
2022-11-13T09:43:28.930Z,102176.53
2022-11-13T09:46:37.559Z,102212.00
2022-11-13T09:49:30.734Z,102190.72
2022-11-13T09:52:21.605Z,102201.38
2022-11-13T09:55:13.995Z,102146.34
2022-11-13T09:58:10.691Z,102176.53
2022-11-13T10:01:01.845Z,102199.63
2022-11-13T10:04:02.683Z,102197.84
2022-11-13T10:07:06.846Z,102188.03
2022-11-13T10:10:08.127Z,102067.34
2022-11-13T10:12:59.704Z,102195.09
2022-11-13T10:15:50.541Z,102153.38
2022-11-13T10:18:40.929Z,102161.38
2022-11-13T10:21:36.677Z,102190.69
2022-11-13T10:24:29.603Z,102112.50
2022-11-13T10:27:17.062Z,102132.94
2022-11-13T10:30:05.298Z,102171.06
2022-11-13T10:32:53.881Z,102157.72
2022-11-13T10:35:53.639Z,102177.34
2022-11-13T10:38:44.979Z,102105.53
2022-11-13T10:41:31.857Z,102140.09
2022-11-13T10:44:30.779Z,102163.91
2022-11-13T10:47:48.895Z,102151.38
2022-11-13T10:50:32.637Z,102181.34
2022-11-13T10:53:22.532Z,102140.00
2022-11-13T10:56:28.162Z,102121.09
2022-11-13T10:59:17.803Z,102122.00
2022-11-13T11:02:18.397Z,102147.50
2022-11-13T11:05:08.449Z,102137.31
2022-11-13T11:07:59.562Z,102138.22
2022-11-13T11:11:16.528Z,102014.97
2022-11-13T11:14:19.827Z,102109.00
2022-11-13T11:17:09.373Z,102079.72
2022-11-13T11:20:04.912Z,102048.72
2022-11-13T11:22:58.892Z,101947.63
2022-11-13T11:25:53.267Z,102074.47
2022-11-13T11:28:46.221Z,102054.94
2022-11-13T11:31:39.400Z,101976.84
2022-11-13T11:34:32.984Z,101848.38
2022-11-13T11:37:23.734Z,101952.06
2022-11-13T11:40:21.271Z,102072.59
2022-11-13T11:43:22.084Z,102015.88
2022-11-13T11:46:13.341Z,102066.41
2022-11-13T11:49:03.365Z,102045.97
2022-11-13T11:52:06.133Z,102030.03
2022-11-13T11:55:06.430Z,101996.41
2022-11-13T11:57:59.948Z,102113.47
2022-11-13T12:00:52.892Z,102031.75
2022-11-13T12:04:05.517Z,102115.22
2022-11-13T12:07:06.962Z,102032.41
2022-11-13T12:10:02.740Z,102035.22
2022-11-13T12:13:12.468Z,102029.81
2022-11-13T12:16:11.157Z,101958.97
2022-11-13T12:19:06.271Z,101989.03
2022-11-13T12:22:04.134Z,102009.25
2022-11-13T12:25:17.383Z,102007.59
2022-11-13T12:28:15.502Z,101806.75
2022-11-13T12:31:16.710Z,101985.63
2022-11-13T12:34:17.690Z,101983.81
2022-11-13T12:37:11.450Z,101980.28
2022-11-13T12:40:02.864Z,101927.97
2022-11-13T12:42:55.563Z,101958.00
2022-11-13T12:45:54.960Z,101971.25
2022-11-13T12:48:46.267Z,101983.59
2022-11-13T12:51:41.790Z,101957.66
2022-11-13T12:54:31.005Z,101924.91
2022-11-13T12:57:30.101Z,101968.19
2022-11-13T13:00:27.513Z,101962.72
2022-11-13T13:03:47.426Z,101975.00
2022-11-13T13:06:56.025Z,101838.63
2022-11-13T13:10:02.416Z,101960.38
2022-11-13T13:12:59.783Z,101938.19
2022-11-13T13:16:01.764Z,101961.16
2022-11-13T13:18:49.338Z,101962.22
2022-11-13T13:21:52.992Z,101955.00
2022-11-13T13:24:41.817Z,101954.13
2022-11-13T13:27:30.798Z,101944.44
2022-11-13T13:30:26.196Z,101843.13
2022-11-13T13:33:27.983Z,101736.94
2022-11-13T13:36:29.460Z,101943.59
2022-11-13T13:39:34.011Z,101820.63
2022-11-13T13:42:47.574Z,101963.28
2022-11-13T13:45:48.304Z,101975.75
2022-11-13T13:48:41.395Z,101930.28
2022-11-13T13:51:35.485Z,101744.91
2022-11-13T13:54:27.942Z,101940.03
2022-11-13T13:57:17.499Z,101908.91
2022-11-13T14:00:12.865Z,101782.13
2022-11-13T14:03:00.209Z,101944.31
2022-11-13T14:05:48.219Z,101901.25
2022-11-13T14:08:35.292Z,101928.94
2022-11-13T14:11:29.593Z,101908.91
2022-11-13T14:14:26.102Z,101934.19
2022-11-13T14:17:34.475Z,101768.47
2022-11-13T14:20:23.963Z,101844.00
2022-11-13T14:23:31.560Z,101600.88
2022-11-13T14:26:27.386Z,101831.13
2022-11-13T14:29:40.107Z,101730.75
2022-11-13T14:32:31.192Z,101875.88
2022-11-13T14:35:22.787Z,101769.94
2022-11-13T14:38:28.446Z,101707.00
2022-11-13T14:41:24.901Z,101654.88
2022-11-13T14:44:15.142Z,101701.50
2022-11-13T14:47:06.139Z,101885.16
2022-11-13T14:49:54.128Z,101820.16
2022-11-13T14:52:41.843Z,101867.47
2022-11-13T14:55:35.010Z,101620.00
2022-11-13T14:58:29.782Z,101905.81
2022-11-13T15:01:21.545Z,101830.69
2022-11-13T15:04:08.750Z,101833.84
2022-11-13T15:07:01.174Z,101894.09
2022-11-13T15:09:51.933Z,101880.03
2022-11-13T15:12:38.961Z,101673.41
2022-11-13T15:15:32.363Z,101887.09
2022-11-13T15:18:21.559Z,101710.69
2022-11-13T15:21:08.570Z,101784.38
2022-11-13T15:23:57.758Z,101659.09
2022-11-13T15:26:45.977Z,101785.53
2022-11-13T15:29:33.828Z,101884.47
2022-11-13T15:32:21.542Z,101591.91
2022-11-13T15:35:18.560Z,101828.69
2022-11-13T15:38:06.189Z,101830.16
2022-11-13T15:40:55.037Z,101854.56
2022-11-13T15:43:45.282Z,101817.53
2022-11-13T15:46:34.509Z,101725.41
2022-11-13T15:49:25.821Z,101808.06
2022-11-13T15:52:16.221Z,101864.56
2022-11-13T15:55:19.928Z,101858.06
2022-11-13T15:58:07.562Z,101859.97
2022-11-13T16:00:54.600Z,101824.84
2022-11-13T16:03:41.896Z,101756.28
2022-11-13T16:06:31.201Z,101808.31
2022-11-13T16:09:21.556Z,101819.03
2022-11-13T16:12:12.281Z,101765.88
2022-11-13T16:15:00.997Z,101688.59
2022-11-13T16:17:53.070Z,101613.03
2022-11-13T16:20:39.904Z,101781.59
2022-11-13T16:23:27.488Z,101836.31
2022-11-13T16:26:20.240Z,101763.19
2022-11-13T16:29:21.987Z,101661.97
2022-11-13T16:32:17.651Z,101826.72
2022-11-13T16:35:05.006Z,101819.06
2022-11-13T16:37:56.654Z,101788.22
2022-11-13T16:40:45.553Z,101704.06
2022-11-13T16:43:33.860Z,101686.25
2022-11-13T16:46:31.763Z,101810.63
2022-11-13T16:49:20.497Z,101812.44
2022-11-13T16:52:09.162Z,101774.94
2022-11-13T16:54:56.206Z,101817.88
2022-11-13T16:57:43.552Z,101573.59
2022-11-13T17:00:33.387Z,101636.25
2022-11-13T17:03:20.653Z,101798.34
2022-11-13T17:06:13.149Z,101739.44
2022-11-13T17:09:03.974Z,101800.75
2022-11-13T17:11:51.246Z,101723.91
2022-11-13T17:14:39.282Z,101753.97
2022-11-13T17:17:27.937Z,101531.50
2022-11-13T17:20:18.225Z,101819.63
2022-11-13T17:23:10.141Z,101776.00
2022-11-13T17:26:01.552Z,101634.66
2022-11-13T17:28:55.147Z,101708.97
2022-11-13T17:31:42.323Z,101526.97
2022-11-13T17:34:31.107Z,101659.50
2022-11-13T17:37:20.578Z,101344.66
2022-11-13T17:40:13.016Z,101647.34
2022-11-13T17:43:00.170Z,101761.09
2022-11-13T17:45:55.366Z,101762.78
2022-11-13T17:48:45.956Z,101779.78
2022-11-13T17:51:36.060Z,101756.69
2022-11-13T17:54:29.287Z,101499.91
2022-11-13T17:57:16.411Z,101569.56
2022-11-13T18:00:08.802Z,101754.94
2022-11-13T18:03:04.875Z,101671.84
2022-11-13T18:05:55.828Z,101621.50
2022-11-13T18:08:44.774Z,101770.28
2022-11-13T18:11:32.057Z,101535.59
2022-11-13T18:14:21.127Z,101728.13
2022-11-13T18:17:09.370Z,101757.47
2022-11-13T18:20:01.695Z,101666.56
2022-11-13T18:22:49.649Z,101707.19
2022-11-13T18:25:41.565Z,101761.91
2022-11-13T18:28:29.019Z,101594.00
2022-11-13T18:31:20.056Z,101576.16
2022-11-13T18:34:09.986Z,101684.88
2022-11-13T18:36:58.430Z,101729.03
2022-11-13T18:39:45.687Z,101744.94
2022-11-13T18:42:33.987Z,101747.56
2022-11-13T18:45:31.792Z,101456.00
2022-11-13T18:48:26.570Z,101291.91
2022-11-13T18:51:15.836Z,101727.94
2022-11-13T18:54:09.947Z,101688.16
2022-11-13T18:56:57.038Z,101728.91
2022-11-13T18:59:47.973Z,101677.50
2022-11-13T19:02:34.825Z,101635.25
2022-11-13T19:05:24.818Z,101433.16
2022-11-13T19:08:14.334Z,101706.63
2022-11-13T19:11:06.726Z,101702.34
2022-11-13T19:13:53.951Z,101703.09
2022-11-13T19:16:45.810Z,101680.16
2022-11-13T19:19:32.734Z,101677.53
2022-11-13T19:22:19.930Z,101695.28
2022-11-13T19:25:08.349Z,101568.94
2022-11-13T19:27:57.006Z,101652.88
2022-11-13T19:30:47.475Z,101713.88
2022-11-13T19:33:36.815Z,101735.19
2022-11-13T19:36:25.806Z,101701.59
2022-11-13T19:39:14.193Z,101749.47
2022-11-13T19:42:01.453Z,101695.31
2022-11-13T19:44:48.946Z,101690.91
2022-11-13T19:47:36.044Z,101682.06
2022-11-13T19:50:25.231Z,101652.03
2022-11-13T19:53:13.420Z,101567.41
2022-11-13T19:56:01.991Z,101695.44
2022-11-13T19:58:57.228Z,101649.47
2022-11-13T20:01:44.697Z,101427.00
2022-11-13T20:04:36.145Z,101693.72
2022-11-13T20:07:26.403Z,101351.19
2022-11-13T20:10:26.534Z,101414.84
2022-11-13T20:13:13.607Z,101667.16
2022-11-13T20:16:00.333Z,101718.69
2022-11-13T20:18:48.015Z,101668.22
2022-11-13T20:21:34.978Z,101667.31
2022-11-13T20:24:23.701Z,101545.50
2022-11-13T20:27:10.643Z,101651.34
2022-11-13T20:29:58.605Z,101461.47
2022-11-13T20:32:52.051Z,101644.31
2022-11-13T20:35:39.472Z,101461.47
2022-11-13T20:38:26.781Z,101473.06
2022-11-13T20:41:15.612Z,101611.63
2022-11-13T20:44:03.530Z,101615.19
2022-11-13T20:46:50.907Z,101617.75
2022-11-13T20:49:38.191Z,101620.44
2022-11-13T20:52:25.599Z,101610.75
2022-11-13T20:55:12.831Z,101540.97
2022-11-13T20:58:01.342Z,101526.78
2022-11-13T21:00:51.652Z,101269.16
2022-11-13T21:03:41.647Z,101446.50
2022-11-13T21:06:29.249Z,101575.53
2022-11-13T21:09:16.643Z,101624.19
2022-11-13T21:12:03.895Z,101427.16
2022-11-13T21:14:52.713Z,101395.28
2022-11-13T21:17:39.801Z,101591.28
2022-11-13T21:20:27.238Z,101388.16
2022-11-13T21:23:14.401Z,101378.56
2022-11-13T21:26:06.217Z,101412.97
2022-11-13T21:28:56.779Z,101388.16
2022-11-13T21:31:46.074Z,101298.19
2022-11-13T21:34:33.229Z,101417.28
2022-11-13T21:37:21.921Z,101259.44
2022-11-13T21:40:18.565Z,101586.03
2022-11-13T21:43:05.956Z,101312.31
2022-11-13T21:45:55.197Z,101552.34
2022-11-13T21:48:43.900Z,101536.53
2022-11-13T21:51:31.359Z,101322.84
2022-11-13T21:54:18.374Z,101435.88
2022-11-13T21:57:05.732Z,101542.69
2022-11-13T21:59:52.842Z,101521.59
2022-11-13T22:02:40.135Z,101535.72
2022-11-13T22:05:28.900Z,101480.94
2022-11-13T22:08:16.185Z,101533.06
2022-11-13T22:11:03.827Z,101505.72
2022-11-13T22:13:51.446Z,101260.34
2022-11-13T22:16:44.550Z,101452.66
2022-11-13T22:19:35.964Z,101332.63
2022-11-13T22:22:26.646Z,101420.03
2022-11-13T22:25:18.959Z,101388.34
2022-11-13T22:28:07.731Z,101473.13
2022-11-13T22:30:55.237Z,101524.44
2022-11-13T22:33:48.797Z,101572.22
2022-11-13T22:36:39.781Z,101480.31
2022-11-13T22:39:30.373Z,101446.75
2022-11-13T22:42:17.357Z,101517.41
2022-11-13T22:45:10.770Z,101489.13
2022-11-13T22:48:07.044Z,101479.41
2022-11-13T22:50:54.093Z,101477.63
2022-11-13T22:53:43.030Z,101495.28
2022-11-13T22:56:33.538Z,101534.19
2022-11-13T22:59:22.036Z,101477.59
2022-11-13T23:02:10.474Z,101469.69
2022-11-13T23:04:57.757Z,101406.94
2022-11-13T23:07:46.675Z,101484.63
2022-11-13T23:10:33.663Z,101453.72
2022-11-13T23:13:22.405Z,101353.97
2022-11-13T23:16:11.470Z,101357.50
2022-11-13T23:19:06.478Z,101462.53
2022-11-13T23:21:55.538Z,101451.91
2022-11-13T23:24:42.658Z,101430.72
2022-11-13T23:27:30.701Z,101443.13
2022-11-13T23:30:19.753Z,101271.00
2022-11-13T23:33:10.214Z,101272.72
2022-11-13T23:35:57.620Z,101004.72
2022-11-13T23:38:47.735Z,101356.56
2022-11-13T23:41:38.907Z,101290.41
2022-11-13T23:44:28.236Z,101467.88
2022-11-13T23:47:16.988Z,101286.84
2022-11-13T23:50:05.550Z,101407.78
2022-11-13T23:52:52.834Z,101447.56
2022-11-13T23:55:41.310Z,101390.16
2022-11-13T23:58:28.804Z,101295.72
